createdAt,value
2018-05-10T00:09:00.708Z,12.80
2018-05-10T00:14:03.937Z,12.90
2018-05-10T00:19:07.382Z,13.10
2018-05-10T00:24:11.103Z,13.20
2018-05-10T00:29:14.485Z,13.20
2018-05-10T00:34:17.719Z,13.00
2018-05-10T00:39:20.965Z,12.80
2018-05-10T00:44:24.454Z,12.50
2018-05-10T00:49:27.691Z,12.50
2018-05-10T00:54:42.691Z,12.60
2018-05-10T00:59:46.129Z,12.70
2018-05-10T01:04:49.943Z,12.60
2018-05-10T01:09:53.344Z,12.60
2018-05-10T01:14:56.578Z,12.50
2018-05-10T01:20:00.199Z,12.30
2018-05-10T01:25:03.967Z,12.30
2018-05-10T01:30:07.212Z,12.30
2018-05-10T01:35:22.792Z,12.30
2018-05-10T01:40:27.032Z,12.30
2018-05-10T01:45:30.759Z,12.60
2018-05-10T01:50:34.569Z,12.50
2018-05-10T01:55:38.149Z,12.50
2018-05-10T02:00:41.574Z,12.40
2018-05-10T02:05:44.812Z,12.10
2018-05-10T02:10:48.029Z,12.20
2018-05-10T02:15:51.808Z,12.30
2018-05-10T02:20:55.023Z,12.40
2018-05-10T02:25:58.655Z,12.50
2018-05-10T02:36:36.240Z,12.20
2018-05-10T02:41:39.493Z,11.90
2018-05-10T02:46:42.719Z,11.70
2018-05-10T02:51:45.953Z,11.60
2018-05-10T02:56:49.190Z,11.90
2018-05-10T03:01:52.424Z,12.20
2018-05-10T03:06:55.675Z,12.30
2018-05-10T03:11:59.051Z,12.30
2018-05-10T03:17:02.302Z,12.40
2018-05-10T03:22:05.563Z,12.50
2018-05-10T03:27:08.837Z,12.80
2018-05-10T03:32:12.470Z,13.30
2018-05-10T03:37:16.101Z,13.30
2018-05-10T03:42:19.354Z,13.30
2018-05-10T03:47:22.590Z,13.40
2018-05-10T03:52:26.236Z,13.40
2018-05-10T03:57:29.446Z,13.40
2018-05-10T04:02:56.484Z,13.50
2018-05-10T04:08:12.597Z,13.70
2018-05-10T04:13:15.801Z,13.80
2018-05-10T04:18:19.029Z,13.90
2018-05-10T04:23:22.248Z,13.80
2018-05-10T04:28:25.596Z,14.00
2018-05-10T04:33:28.873Z,14.00
2018-05-10T04:38:32.134Z,14.00
2018-05-10T04:43:35.531Z,14.00
2018-05-10T04:48:39.161Z,13.90
2018-05-10T04:53:42.423Z,13.90
2018-05-10T04:58:45.671Z,13.80
2018-05-10T05:03:48.896Z,13.80
2018-05-10T05:08:52.186Z,13.80
2018-05-10T05:13:55.433Z,14.00
2018-05-10T05:18:58.650Z,14.20
2018-05-10T05:24:01.884Z,14.50
2018-05-10T05:29:05.532Z,15.20
2018-05-10T05:34:08.774Z,15.20
2018-05-10T05:39:12.052Z,15.50
2018-05-10T05:44:15.342Z,15.60
2018-05-10T05:49:18.572Z,15.60
2018-05-10T05:54:21.840Z,15.60
2018-05-10T05:59:25.455Z,15.40
2018-05-10T06:04:29.086Z,15.50
2018-05-10T06:09:32.739Z,15.50
2018-05-10T06:14:35.963Z,15.50
2018-05-10T06:19:39.205Z,15.50
2018-05-10T06:24:42.529Z,15.50
2018-05-10T06:29:46.338Z,15.50
2018-05-10T06:34:49.576Z,15.50
2018-05-10T06:39:52.798Z,15.70
2018-05-10T06:44:56.149Z,15.90
2018-05-10T06:49:59.792Z,16.30
2018-05-10T06:55:03.051Z,16.30
2018-05-10T07:00:06.324Z,16.40
2018-05-10T07:05:09.544Z,16.60
2018-05-10T07:10:12.796Z,16.70
2018-05-10T07:15:16.053Z,16.60
2018-05-10T07:20:19.367Z,16.80
2018-05-10T07:25:22.752Z,17.80
2018-05-10T07:30:25.844Z,18.30
2018-05-10T07:35:29.149Z,18.00
2018-05-10T07:40:32.382Z,17.70
2018-05-10T07:45:35.632Z,17.10
2018-05-10T07:50:39.248Z,16.60
2018-05-10T07:55:42.902Z,16.70
2018-05-10T08:00:46.131Z,16.70
2018-05-10T08:05:49.394Z,17.00
2018-05-10T08:10:52.626Z,16.90
2018-05-10T08:15:55.956Z,17.40
2018-05-10T08:20:59.204Z,17.50
2018-05-10T08:26:02.864Z,18.00
2018-05-10T08:31:06.178Z,18.00
2018-05-10T08:36:09.411Z,18.30
2018-05-10T08:41:12.656Z,17.80
2018-05-10T08:46:15.924Z,17.50
2018-05-10T08:51:19.554Z,17.60
2018-05-10T08:56:23.249Z,17.20
2018-05-10T09:01:26.487Z,17.20
2018-05-10T09:06:29.853Z,16.80
2018-05-10T09:11:34.193Z,16.90
2018-05-10T09:16:37.644Z,17.00
2018-05-10T09:21:40.999Z,16.90
2018-05-10T09:26:44.333Z,17.10
2018-05-10T09:31:48.243Z,17.60
2018-05-10T09:36:51.993Z,18.00
2018-05-10T09:41:55.415Z,17.90
2018-05-10T09:46:58.677Z,17.90
2018-05-10T09:52:03.032Z,17.90
2018-05-10T09:57:06.734Z,17.80
2018-05-10T10:02:10.023Z,17.80
2018-05-10T10:07:13.258Z,17.50
2018-05-10T10:12:16.980Z,17.90
2018-05-10T10:17:20.600Z,17.60
2018-05-10T10:22:24.256Z,17.50
2018-05-10T10:27:27.580Z,17.50
2018-05-10T10:32:30.849Z,17.30
2018-05-10T10:37:34.525Z,17.30
2018-05-10T10:42:38.139Z,17.20
2018-05-10T10:47:41.866Z,17.20
2018-05-10T10:52:45.480Z,17.30
2018-05-10T10:57:49.262Z,17.40
2018-05-10T11:02:52.587Z,17.40
2018-05-10T11:07:56.448Z,17.10
2018-05-10T11:12:59.730Z,17.10
2018-05-10T11:18:03.339Z,17.10
2018-05-10T11:23:06.669Z,17.10
2018-05-10T11:28:10.296Z,17.60
2018-05-10T11:33:13.616Z,17.60
2018-05-10T11:38:16.780Z,17.70
2018-05-10T11:43:20.014Z,18.20
2018-05-10T11:48:23.236Z,18.70
2018-05-10T11:53:26.700Z,18.90
2018-05-10T11:58:30.430Z,18.20
2018-05-10T12:03:34.069Z,18.30
2018-05-10T12:08:37.305Z,18.20
2018-05-10T12:13:40.531Z,18.90
2018-05-10T12:18:43.854Z,18.80
2018-05-10T12:23:47.459Z,17.80
2018-05-10T12:28:51.163Z,17.40
2018-05-10T12:33:54.487Z,17.40
2018-05-10T12:38:57.724Z,17.20
2018-05-10T12:44:00.942Z,16.90
2018-05-10T12:49:04.215Z,16.60
2018-05-10T12:54:07.633Z,17.00
2018-05-10T12:59:10.952Z,17.60
2018-05-10T13:04:14.187Z,17.90
2018-05-10T13:09:17.437Z,18.30
2018-05-10T13:14:20.747Z,17.90
2018-05-10T13:19:23.987Z,17.70
2018-05-10T13:24:27.195Z,18.20
2018-05-10T13:29:30.478Z,18.10
2018-05-10T13:34:34.088Z,18.30
2018-05-10T13:39:38.409Z,18.30
2018-05-10T13:44:42.030Z,19.20
2018-05-10T13:49:46.256Z,18.40
2018-05-10T13:54:49.904Z,18.40
2018-05-10T13:59:53.163Z,18.40
2018-05-10T14:04:56.408Z,18.20
2018-05-10T14:09:59.704Z,18.00
2018-05-10T14:15:03.423Z,18.40
2018-05-10T14:20:06.650Z,18.40
2018-05-10T14:25:10.034Z,18.40
2018-05-10T14:30:13.824Z,18.00
2018-05-10T14:35:17.038Z,18.00
2018-05-10T14:40:20.255Z,17.50
2018-05-10T14:45:23.887Z,17.20
2018-05-10T14:50:27.120Z,17.20
2018-05-10T14:55:30.388Z,17.20
2018-05-10T15:00:34.007Z,17.50
2018-05-10T15:05:37.633Z,17.10
2018-05-10T15:10:40.914Z,17.20
2018-05-10T15:15:44.140Z,17.00
2018-05-10T15:20:47.403Z,16.60
2018-05-10T15:25:50.671Z,16.60
2018-05-10T15:30:54.068Z,16.30
2018-05-10T15:35:57.319Z,16.20
2018-05-10T15:41:00.541Z,16.30
2018-05-10T15:46:03.796Z,15.90
2018-05-10T15:51:07.082Z,15.20
2018-05-10T15:56:10.886Z,14.40
2018-05-10T16:01:14.209Z,14.30
2018-05-10T16:06:17.912Z,14.20
2018-05-10T16:11:22.251Z,14.20
2018-05-10T16:16:25.888Z,13.70
2018-05-10T16:21:29.268Z,13.70
2018-05-10T16:26:32.602Z,13.60
2018-05-10T16:31:36.095Z,13.60
2018-05-10T16:36:39.918Z,13.20
2018-05-10T16:41:43.728Z,12.80
2018-05-10T16:46:49.670Z,12.60
2018-05-10T16:51:52.944Z,12.50
2018-05-10T16:56:56.175Z,12.40
2018-05-10T17:01:59.524Z,12.40
2018-05-10T17:07:03.171Z,12.20
2018-05-10T17:12:06.452Z,12.20
2018-05-10T17:17:10.761Z,12.00
2018-05-10T17:22:14.027Z,12.00
2018-05-10T17:27:17.273Z,12.00
2018-05-10T17:32:20.547Z,11.90
2018-05-10T17:37:24.122Z,11.70
2018-05-10T17:42:27.662Z,11.60
2018-05-10T17:47:31.194Z,11.60
2018-05-10T17:52:34.661Z,11.50
2018-05-10T17:57:39.090Z,11.60
2018-05-10T18:02:43.128Z,11.50
2018-05-10T18:07:46.391Z,11.50
2018-05-10T18:12:49.716Z,11.60
2018-05-10T18:17:55.151Z,11.70
2018-05-10T18:22:58.535Z,11.70
2018-05-10T18:28:02.505Z,11.80
2018-05-10T18:33:06.130Z,12.00
2018-05-10T18:38:09.817Z,12.10
2018-05-10T18:43:13.452Z,12.10
2018-05-10T18:48:17.009Z,12.10
2018-05-10T18:53:20.479Z,12.20
2018-05-10T18:58:24.106Z,12.20
2018-05-10T19:03:27.940Z,12.20
2018-05-10T19:08:31.187Z,12.20
2018-05-10T19:13:34.935Z,12.20
2018-05-10T19:18:38.501Z,12.30
2018-05-10T19:23:42.063Z,12.40
2018-05-10T19:28:45.299Z,12.30
2018-05-10T19:33:48.679Z,12.40
2018-05-10T19:38:51.918Z,12.30
2018-05-10T19:43:55.216Z,12.20
2018-05-10T19:48:58.578Z,12.20
2018-05-10T19:54:01.810Z,12.20
2018-05-10T19:59:05.098Z,12.30
2018-05-10T20:04:08.323Z,12.40
2018-05-10T20:09:11.948Z,12.40
2018-05-10T20:14:15.565Z,12.40
2018-05-10T20:19:19.522Z,12.50
2018-05-10T20:24:23.048Z,12.50
2018-05-10T20:29:26.393Z,12.50
2018-05-10T20:34:29.716Z,12.40
2018-05-10T20:39:33.417Z,12.50
2018-05-10T20:44:36.783Z,12.50
2018-05-10T20:49:40.164Z,12.40
2018-05-10T20:54:43.403Z,12.40
2018-05-10T20:59:46.783Z,12.40
2018-05-10T21:04:50.262Z,12.40
2018-05-10T21:09:54.201Z,12.30
2018-05-10T21:14:57.487Z,12.30
2018-05-10T21:20:00.806Z,12.40
2018-05-10T21:25:04.489Z,12.50
2018-05-10T21:30:07.926Z,12.50
2018-05-10T21:35:11.259Z,12.50
2018-05-10T21:40:14.550Z,12.50
2018-05-10T21:45:18.313Z,12.50
2018-05-10T21:50:27.606Z,12.50
2018-05-10T21:55:31.024Z,12.50
2018-05-10T22:00:34.496Z,12.50
2018-05-10T22:05:38.982Z,12.60
2018-05-10T22:10:42.692Z,12.60
2018-05-10T22:15:46.309Z,12.50
2018-05-10T22:20:49.944Z,12.40
2018-05-10T22:25:53.232Z,12.40
2018-05-10T22:30:56.842Z,12.10
2018-05-10T22:36:00.513Z,12.00
2018-05-10T22:41:03.727Z,12.00
2018-05-10T22:46:07.169Z,11.90
2018-05-10T22:51:10.488Z,11.90
2018-05-10T22:56:14.192Z,11.80
2018-05-10T23:01:17.461Z,11.80
2018-05-10T23:06:20.691Z,11.60
2018-05-10T23:11:23.939Z,11.50
2018-05-10T23:16:27.161Z,11.40
2018-05-10T23:21:30.433Z,11.40
2018-05-10T23:26:34.252Z,11.30
2018-05-10T23:31:38.163Z,11.10
2018-05-10T23:36:41.637Z,11.10
2018-05-10T23:41:44.900Z,11.20
2018-05-10T23:46:48.602Z,11.20
2018-05-10T23:51:51.887Z,11.20
2018-05-10T23:56:55.201Z,11.10
